Mount Vernon, Oregon
Current Conditions -  °F | °C
As of 10:15 AM on Friday 19 Dec 2014 (Local Time) from KGCD Reporting Station
Light Rain Light Rain  
Wind Chill: 35°   Ceiling: 1900
Heat Index: 42°   Visibility: 10mi
Dew Point: 37°   Wind: 12mph
Humidity: 83%   Direction: 190°S
Pressure: 29.97"   Gusts: NA
Location:  44.42°N, 119.11°W
Report Text: KGCD 191815Z AUTO 19010KT 10SM -RA BKN019 OVC034 05/03 A2997 RMK AO2 P0001 T00530026
Loading
Personal Weather Stations






























Interactive Weather Map New forecast layout! Learn more

10-Day Weather Forecast

Advertisements
Track Severe Weather on mobile